sensor_id;sensor_type;location;lat;lon;timestamp;P1;durP1;ratioP1;P2;durP2;ratioP2
5981;SDS011;3018;48.730;9.336;2024-03-06T00:02:05;28.42;;;19.05;;
5981;SDS011;3018;48.730;9.336;2024-03-06T00:04:32;28.88;;;18.83;;
5981;SDS011;3018;48.730;9.336;2024-03-06T00:06:58;26.45;;;18.40;;
5981;SDS011;3018;48.730;9.336;2024-03-06T00:09:24;25.90;;;19.63;;
5981;SDS011;3018;48.730;9.336;2024-03-06T00:11:52;27.30;;;19.42;;
5981;SDS011;3018;48.730;9.336;2024-03-06T00:14:18;30.38;;;20.42;;
5981;SDS011;3018;48.730;9.336;2024-03-06T00:16:44;36.40;;;22.23;;
5981;SDS011;3018;48.730;9.336;2024-03-06T00:19:12;31.88;;;21.45;;
5981;SDS011;3018;48.730;9.336;2024-03-06T00:21:38;32.38;;;21.27;;
5981;SDS011;3018;48.730;9.336;2024-03-06T00:24:05;30.50;;;20.65;;
5981;SDS011;3018;48.730;9.336;2024-03-06T00:26:31;32.58;;;21.10;;
5981;SDS011;3018;48.730;9.336;2024-03-06T00:28:57;31.13;;;21.02;;
5981;SDS011;3018;48.730;9.336;2024-03-06T00:31:24;32.20;;;21.48;;
5981;SDS011;3018;48.730;9.336;2024-03-06T00:33:50;32.47;;;20.73;;
5981;SDS011;3018;48.730;9.336;2024-03-06T00:36:17;29.50;;;19.80;;
5981;SDS011;3018;48.730;9.336;2024-03-06T00:38:44;29.13;;;19.23;;
5981;SDS011;3018;48.730;9.336;2024-03-06T00:41:10;26.40;;;19.13;;
5981;SDS011;3018;48.730;9.336;2024-03-06T00:43:36;26.27;;;18.50;;
5981;SDS011;3018;48.730;9.336;2024-03-06T00:46:03;29.38;;;18.73;;
5981;SDS011;3018;48.730;9.336;2024-03-06T00:48:29;23.20;;;17.33;;
5981;SDS011;3018;48.730;9.336;2024-03-06T00:50:55;23.92;;;17.40;;
5981;SDS011;3018;48.730;9.336;2024-03-06T00:53:23;20.83;;;16.42;;
5981;SDS011;3018;48.730;9.336;2024-03-06T00:55:49;23.60;;;16.60;;
5981;SDS011;3018;48.730;9.336;2024-03-06T00:58:15;22.02;;;15.80;;
5981;SDS011;3018;48.730;9.336;2024-03-06T01:00:42;22.92;;;16.30;;
5981;SDS011;3018;48.730;9.336;2024-03-06T01:03:08;21.20;;;16.98;;
5981;SDS011;3018;48.730;9.336;2024-03-06T01:05:34;22.10;;;16.65;;
5981;SDS011;3018;48.730;9.336;2024-03-06T01:08:00;21.90;;;17.10;;
5981;SDS011;3018;48.730;9.336;2024-03-06T01:10:28;20.75;;;15.98;;
5981;SDS011;3018;48.730;9.336;2024-03-06T01:12:54;23.88;;;17.17;;
5981;SDS011;3018;48.730;9.336;2024-03-06T01:15:21;20.30;;;16.25;;
5981;SDS011;3018;48.730;9.336;2024-03-06T01:17:47;20.75;;;15.50;;
5981;SDS011;3018;48.730;9.336;2024-03-06T01:20:13;25.70;;;17.95;;
5981;SDS011;3018;48.730;9.336;2024-03-06T01:22:39;24.85;;;17.60;;
5981;SDS011;3018;48.730;9.336;2024-03-06T01:25:06;25.42;;;18.17;;
5981;SDS011;3018;48.730;9.336;2024-03-06T01:27:34;25.92;;;17.88;;
5981;SDS011;3018;48.730;9.336;2024-03-06T01:30:00;25.42;;;17.85;;
5981;SDS011;3018;48.730;9.336;2024-03-06T01:32:26;20.63;;;16.15;;
5981;SDS011;3018;48.730;9.336;2024-03-06T01:34:52;24.05;;;16.38;;
5981;SDS011;3018;48.730;9.336;2024-03-06T01:37:19;24.55;;;17.60;;
5981;SDS011;3018;48.730;9.336;2024-03-06T01:39:45;22.30;;;17.08;;
5981;SDS011;3018;48.730;9.336;2024-03-06T01:42:11;23.00;;;17.00;;
5981;SDS011;3018;48.730;9.336;2024-03-06T01:44:39;23.08;;;16.75;;
5981;SDS011;3018;48.730;9.336;2024-03-06T01:47:05;25.05;;;17.65;;
5981;SDS011;3018;48.730;9.336;2024-03-06T01:49:31;25.17;;;18.00;;
5981;SDS011;3018;48.730;9.336;2024-03-06T01:51:58;20.58;;;16.08;;
5981;SDS011;3018;48.730;9.336;2024-03-06T01:54:25;21.95;;;16.73;;
5981;SDS011;3018;48.730;9.336;2024-03-06T01:56:51;24.67;;;16.30;;
5981;SDS011;3018;48.730;9.336;2024-03-06T01:59:19;19.63;;;15.30;;
5981;SDS011;3018;48.730;9.336;2024-03-06T02:01:48;20.10;;;15.43;;
5981;SDS011;3018;48.730;9.336;2024-03-06T02:04:14;19.10;;;15.30;;
5981;SDS011;3018;48.730;9.336;2024-03-06T02:06:43;20.67;;;16.05;;
5981;SDS011;3018;48.730;9.336;2024-03-06T02:09:09;22.25;;;15.73;;
5981;SDS011;3018;48.730;9.336;2024-03-06T02:11:37;24.02;;;16.52;;
5981;SDS011;3018;48.730;9.336;2024-03-06T02:14:03;21.60;;;16.83;;
5981;SDS011;3018;48.730;9.336;2024-03-06T02:16:31;23.63;;;16.95;;
5981;SDS011;3018;48.730;9.336;2024-03-06T02:18:59;19.70;;;16.50;;
5981;SDS011;3018;48.730;9.336;2024-03-06T02:21:26;25.33;;;17.98;;
5981;SDS011;3018;48.730;9.336;2024-03-06T02:23:53;28.15;;;18.77;;
5981;SDS011;3018;48.730;9.336;2024-03-06T02:26:19;27.10;;;18.45;;
5981;SDS011;3018;48.730;9.336;2024-03-06T02:28:48;28.00;;;18.80;;
5981;SDS011;3018;48.730;9.336;2024-03-06T02:31:15;29.70;;;18.58;;
5981;SDS011;3018;48.730;9.336;2024-03-06T02:33:42;24.58;;;18.73;;
5981;SDS011;3018;48.730;9.336;2024-03-06T02:36:08;28.15;;;19.08;;
5981;SDS011;3018;48.730;9.336;2024-03-06T02:38:36;23.98;;;17.83;;
5981;SDS011;3018;48.730;9.336;2024-03-06T02:41:02;27.63;;;17.80;;
5981;SDS011;3018;48.730;9.336;2024-03-06T02:43:28;24.50;;;18.48;;
5981;SDS011;3018;48.730;9.336;2024-03-06T02:45:54;23.63;;;17.95;;
5981;SDS011;3018;48.730;9.336;2024-03-06T02:48:21;26.52;;;17.20;;
5981;SDS011;3018;48.730;9.336;2024-03-06T02:50:47;24.52;;;17.20;;
5981;SDS011;3018;48.730;9.336;2024-03-06T02:53:13;21.25;;;16.33;;
5981;SDS011;3018;48.730;9.336;2024-03-06T02:55:41;19.85;;;16.00;;
5981;SDS011;3018;48.730;9.336;2024-03-06T02:58:07;19.30;;;14.52;;
5981;SDS011;3018;48.730;9.336;2024-03-06T03:00:33;19.77;;;14.70;;
5981;SDS011;3018;48.730;9.336;2024-03-06T03:03:00;16.90;;;14.55;;
5981;SDS011;3018;48.730;9.336;2024-03-06T03:05:26;18.75;;;15.13;;
5981;SDS011;3018;48.730;9.336;2024-03-06T03:07:52;19.45;;;14.68;;
5981;SDS011;3018;48.730;9.336;2024-03-06T03:10:18;20.08;;;14.68;;
5981;SDS011;3018;48.730;9.336;2024-03-06T03:12:46;24.30;;;15.13;;
5981;SDS011;3018;48.730;9.336;2024-03-06T03:15:12;19.23;;;14.32;;
5981;SDS011;3018;48.730;9.336;2024-03-06T03:17:39;16.42;;;13.25;;
5981;SDS011;3018;48.730;9.336;2024-03-06T03:20:06;19.77;;;14.18;;
5981;SDS011;3018;48.730;9.336;2024-03-06T03:22:36;17.63;;;13.18;;
5981;SDS011;3018;48.730;9.336;2024-03-06T03:25:03;17.30;;;13.05;;
5981;SDS011;3018;48.730;9.336;2024-03-06T03:27:32;18.85;;;13.80;;
5981;SDS011;3018;48.730;9.336;2024-03-06T03:29:59;17.48;;;12.63;;
5981;SDS011;3018;48.730;9.336;2024-03-06T03:32:26;17.50;;;12.10;;
5981;SDS011;3018;48.730;9.336;2024-03-06T03:34:52;17.52;;;13.25;;
5981;SDS011;3018;48.730;9.336;2024-03-06T03:37:19;17.75;;;12.73;;
5981;SDS011;3018;48.730;9.336;2024-03-06T03:39:45;16.38;;;12.32;;
5981;SDS011;3018;48.730;9.336;2024-03-06T03:42:11;20.20;;;14.00;;
5981;SDS011;3018;48.730;9.336;2024-03-06T03:44:37;16.13;;;11.98;;
5981;SDS011;3018;48.730;9.336;2024-03-06T03:47:06;17.90;;;13.27;;
5981;SDS011;3018;48.730;9.336;2024-03-06T03:49:32;16.85;;;13.57;;
5981;SDS011;3018;48.730;9.336;2024-03-06T03:51:58;16.27;;;12.68;;
5981;SDS011;3018;48.730;9.336;2024-03-06T03:54:25;17.35;;;13.23;;
5981;SDS011;3018;48.730;9.336;2024-03-06T03:56:51;17.10;;;13.88;;
5981;SDS011;3018;48.730;9.336;2024-03-06T03:59:18;17.27;;;13.30;;
5981;SDS011;3018;48.730;9.336;2024-03-06T04:01:44;16.90;;;13.82;;
5981;SDS011;3018;48.730;9.336;2024-03-06T04:04:12;16.27;;;12.63;;
5981;SDS011;3018;48.730;9.336;2024-03-06T04:06:39;20.77;;;13.02;;
5981;SDS011;3018;48.730;9.336;2024-03-06T04:09:05;17.48;;;12.93;;
5981;SDS011;3018;48.730;9.336;2024-03-06T04:11:34;16.90;;;13.18;;
5981;SDS011;3018;48.730;9.336;2024-03-06T04:14:02;15.50;;;12.40;;
5981;SDS011;3018;48.730;9.336;2024-03-06T04:16:28;15.52;;;12.85;;
5981;SDS011;3018;48.730;9.336;2024-03-06T04:18:54;16.25;;;13.02;;
5981;SDS011;3018;48.730;9.336;2024-03-06T04:21:22;17.02;;;12.18;;
5981;SDS011;3018;48.730;9.336;2024-03-06T04:23:48;14.63;;;11.50;;
5981;SDS011;3018;48.730;9.336;2024-03-06T04:26:14;15.60;;;11.85;;
5981;SDS011;3018;48.730;9.336;2024-03-06T04:28:42;13.25;;;11.35;;
5981;SDS011;3018;48.730;9.336;2024-03-06T04:31:09;14.48;;;11.40;;
5981;SDS011;3018;48.730;9.336;2024-03-06T04:33:35;11.30;;;10.02;;
5981;SDS011;3018;48.730;9.336;2024-03-06T04:36:02;11.27;;;10.07;;
5981;SDS011;3018;48.730;9.336;2024-03-06T04:38:30;11.38;;;10.18;;
5981;SDS011;3018;48.730;9.336;2024-03-06T04:40:56;13.35;;;10.43;;
5981;SDS011;3018;48.730;9.336;2024-03-06T04:43:22;10.85;;;9.45;;
5981;SDS011;3018;48.730;9.336;2024-03-06T04:45:49;13.20;;;9.20;;
5981;SDS011;3018;48.730;9.336;2024-03-06T04:48:15;10.55;;;9.07;;
5981;SDS011;3018;48.730;9.336;2024-03-06T04:50:41;10.50;;;9.43;;
5981;SDS011;3018;48.730;9.336;2024-03-06T04:53:08;10.82;;;9.52;;
5981;SDS011;3018;48.730;9.336;2024-03-06T04:55:37;9.00;;;8.10;;
5981;SDS011;3018;48.730;9.336;2024-03-06T04:58:03;9.02;;;7.47;;
5981;SDS011;3018;48.730;9.336;2024-03-06T05:00:29;8.18;;;7.35;;
5981;SDS011;3018;48.730;9.336;2024-03-06T05:02:56;11.95;;;10.60;;
5981;SDS011;3018;48.730;9.336;2024-03-06T05:05:22;10.32;;;8.55;;
5981;SDS011;3018;48.730;9.336;2024-03-06T05:07:49;11.77;;;9.40;;
5981;SDS011;3018;48.730;9.336;2024-03-06T05:10:16;9.95;;;8.40;;
5981;SDS011;3018;48.730;9.336;2024-03-06T05:12:44;9.45;;;8.40;;
5981;SDS011;3018;48.730;9.336;2024-03-06T05:15:10;8.52;;;7.45;;
5981;SDS011;3018;48.730;9.336;2024-03-06T05:17:37;8.75;;;7.85;;
5981;SDS011;3018;48.730;9.336;2024-03-06T05:20:04;7.35;;;6.38;;
5981;SDS011;3018;48.730;9.336;2024-03-06T05:22:31;6.15;;;5.50;;
5981;SDS011;3018;48.730;9.336;2024-03-06T05:24:57;6.50;;;5.82;;
5981;SDS011;3018;48.730;9.336;2024-03-06T05:27:24;6.15;;;5.38;;
5981;SDS011;3018;48.730;9.336;2024-03-06T05:29:51;6.38;;;5.78;;
5981;SDS011;3018;48.730;9.336;2024-03-06T05:32:18;6.43;;;5.93;;
5981;SDS011;3018;48.730;9.336;2024-03-06T05:34:44;6.38;;;5.55;;
5981;SDS011;3018;48.730;9.336;2024-03-06T05:37:10;8.20;;;5.63;;
5981;SDS011;3018;48.730;9.336;2024-03-06T05:39:37;6.38;;;5.75;;
5981;SDS011;3018;48.730;9.336;2024-03-06T05:42:04;6.40;;;5.72;;
5981;SDS011;3018;48.730;9.336;2024-03-06T05:44:30;7.70;;;5.75;;
5981;SDS011;3018;48.730;9.336;2024-03-06T05:46:58;7.07;;;5.82;;
5981;SDS011;3018;48.730;9.336;2024-03-06T05:49:26;6.85;;;6.03;;
5981;SDS011;3018;48.730;9.336;2024-03-06T05:51:52;6.10;;;5.63;;
5981;SDS011;3018;48.730;9.336;2024-03-06T05:54:19;6.10;;;5.60;;
5981;SDS011;3018;48.730;9.336;2024-03-06T05:56:47;5.78;;;5.38;;
5981;SDS011;3018;48.730;9.336;2024-03-06T05:59:13;6.40;;;5.75;;
5981;SDS011;3018;48.730;9.336;2024-03-06T06:01:40;6.88;;;6.05;;
5981;SDS011;3018;48.730;9.336;2024-03-06T06:04:08;7.22;;;6.20;;
5981;SDS011;3018;48.730;9.336;2024-03-06T06:06:35;10.02;;;6.57;;
5981;SDS011;3018;48.730;9.336;2024-03-06T06:09:01;6.63;;;6.13;;
5981;SDS011;3018;48.730;9.336;2024-03-06T06:11:28;7.43;;;6.72;;
5981;SDS011;3018;48.730;9.336;2024-03-06T06:13:55;8.88;;;7.15;;
5981;SDS011;3018;48.730;9.336;2024-03-06T06:16:21;11.00;;;6.43;;
5981;SDS011;3018;48.730;9.336;2024-03-06T06:18:47;6.88;;;5.57;;
5981;SDS011;3018;48.730;9.336;2024-03-06T06:21:15;6.68;;;6.00;;
5981;SDS011;3018;48.730;9.336;2024-03-06T06:23:41;6.70;;;5.93;;
5981;SDS011;3018;48.730;9.336;2024-03-06T06:26:07;6.47;;;5.80;;
5981;SDS011;3018;48.730;9.336;2024-03-06T06:28:35;6.40;;;5.78;;
5981;SDS011;3018;48.730;9.336;2024-03-06T06:31:02;6.68;;;5.90;;
5981;SDS011;3018;48.730;9.336;2024-03-06T06:33:29;6.35;;;5.50;;
5981;SDS011;3018;48.730;9.336;2024-03-06T06:35:55;6.28;;;5.75;;
5981;SDS011;3018;48.730;9.336;2024-03-06T06:38:22;9.20;;;6.65;;
5981;SDS011;3018;48.730;9.336;2024-03-06T06:40:49;7.25;;;6.35;;
5981;SDS011;3018;48.730;9.336;2024-03-06T06:43:15;8.02;;;6.45;;
5981;SDS011;3018;48.730;9.336;2024-03-06T06:45:41;7.03;;;5.80;;
5981;SDS011;3018;48.730;9.336;2024-03-06T06:48:08;8.88;;;6.22;;
5981;SDS011;3018;48.730;9.336;2024-03-06T06:50:34;7.72;;;6.35;;
5981;SDS011;3018;48.730;9.336;2024-03-06T06:53:01;6.75;;;6.15;;
5981;SDS011;3018;48.730;9.336;2024-03-06T06:55:28;8.57;;;6.55;;
5981;SDS011;3018;48.730;9.336;2024-03-06T06:57:54;7.32;;;6.70;;
5981;SDS011;3018;48.730;9.336;2024-03-06T07:00:21;7.38;;;6.70;;
5981;SDS011;3018;48.730;9.336;2024-03-06T07:02:48;7.32;;;6.55;;
5981;SDS011;3018;48.730;9.336;2024-03-06T07:05:15;7.60;;;6.53;;
5981;SDS011;3018;48.730;9.336;2024-03-06T07:07:41;6.78;;;6.07;;
5981;SDS011;3018;48.730;9.336;2024-03-06T07:10:08;8.73;;;6.60;;
5981;SDS011;3018;48.730;9.336;2024-03-06T07:12:36;8.15;;;6.18;;
5981;SDS011;3018;48.730;9.336;2024-03-06T07:15:03;10.18;;;7.22;;
5981;SDS011;3018;48.730;9.336;2024-03-06T07:17:29;11.32;;;6.80;;
5981;SDS011;3018;48.730;9.336;2024-03-06T07:19:55;10.80;;;6.65;;
5981;SDS011;3018;48.730;9.336;2024-03-06T07:22:22;7.68;;;6.47;;
5981;SDS011;3018;48.730;9.336;2024-03-06T07:24:48;8.20;;;6.32;;
5981;SDS011;3018;48.730;9.336;2024-03-06T07:27:15;7.72;;;5.47;;
5981;SDS011;3018;48.730;9.336;2024-03-06T07:29:42;7.13;;;6.20;;
5981;SDS011;3018;48.730;9.336;2024-03-06T07:32:08;5.97;;;5.50;;
5981;SDS011;3018;48.730;9.336;2024-03-06T07:34:35;7.55;;;5.65;;
5981;SDS011;3018;48.730;9.336;2024-03-06T07:37:02;5.82;;;5.22;;
5981;SDS011;3018;48.730;9.336;2024-03-06T07:39:29;10.82;;;5.90;;
5981;SDS011;3018;48.730;9.336;2024-03-06T07:41:56;6.72;;;5.65;;
5981;SDS011;3018;48.730;9.336;2024-03-06T07:44:22;6.03;;;5.32;;
5981;SDS011;3018;48.730;9.336;2024-03-06T07:46:50;7.00;;;5.63;;
5981;SDS011;3018;48.730;9.336;2024-03-06T07:49:18;6.50;;;5.90;;
5981;SDS011;3018;48.730;9.336;2024-03-06T07:51:44;8.38;;;6.30;;
5981;SDS011;3018;48.730;9.336;2024-03-06T07:54:10;8.63;;;5.72;;
5981;SDS011;3018;48.730;9.336;2024-03-06T07:56:37;7.32;;;6.10;;
5981;SDS011;3018;48.730;9.336;2024-03-06T07:59:03;7.80;;;6.88;;
5981;SDS011;3018;48.730;9.336;2024-03-06T08:01:30;9.77;;;7.05;;
5981;SDS011;3018;48.730;9.336;2024-03-06T08:03:59;7.32;;;6.63;;
5981;SDS011;3018;48.730;9.336;2024-03-06T08:06:25;8.63;;;7.72;;
5981;SDS011;3018;48.730;9.336;2024-03-06T08:08:54;10.18;;;7.15;;
5981;SDS011;3018;48.730;9.336;2024-03-06T08:11:20;9.35;;;7.45;;
5981;SDS011;3018;48.730;9.336;2024-03-06T08:13:48;9.60;;;7.00;;
5981;SDS011;3018;48.730;9.336;2024-03-06T08:16:15;9.38;;;7.30;;
5981;SDS011;3018;48.730;9.336;2024-03-06T08:18:42;8.43;;;7.63;;
5981;SDS011;3018;48.730;9.336;2024-03-06T08:21:10;9.52;;;7.20;;
5981;SDS011;3018;48.730;9.336;2024-03-06T08:23:36;7.72;;;7.03;;
5981;SDS011;3018;48.730;9.336;2024-03-06T08:26:02;9.27;;;7.75;;
5981;SDS011;3018;48.730;9.336;2024-03-06T08:28:29;8.02;;;7.22;;
5981;SDS011;3018;48.730;9.336;2024-03-06T08:30:56;9.60;;;7.32;;
5981;SDS011;3018;48.730;9.336;2024-03-06T08:33:22;8.55;;;7.47;;
5981;SDS011;3018;48.730;9.336;2024-03-06T08:35:50;11.48;;;7.15;;
5981;SDS011;3018;48.730;9.336;2024-03-06T08:38:17;8.55;;;7.35;;
5981;SDS011;3018;48.730;9.336;2024-03-06T08:40:44;10.48;;;7.57;;
5981;SDS011;3018;48.730;9.336;2024-03-06T08:43:10;9.48;;;8.02;;
5981;SDS011;3018;48.730;9.336;2024-03-06T08:45:37;14.32;;;8.00;;
5981;SDS011;3018;48.730;9.336;2024-03-06T08:48:04;11.68;;;7.32;;
5981;SDS011;3018;48.730;9.336;2024-03-06T08:50:30;9.48;;;7.57;;
5981;SDS011;3018;48.730;9.336;2024-03-06T08:52:56;9.38;;;8.30;;
5981;SDS011;3018;48.730;9.336;2024-03-06T08:55:24;8.88;;;7.82;;
5981;SDS011;3018;48.730;9.336;2024-03-06T08:57:50;9.50;;;7.25;;
5981;SDS011;3018;48.730;9.336;2024-03-06T09:00:17;9.23;;;7.40;;
5981;SDS011;3018;48.730;9.336;2024-03-06T09:02:44;10.60;;;8.18;;
5981;SDS011;3018;48.730;9.336;2024-03-06T09:05:10;12.57;;;7.88;;
5981;SDS011;3018;48.730;9.336;2024-03-06T09:07:37;9.00;;;7.15;;
5981;SDS011;3018;48.730;9.336;2024-03-06T09:10:05;9.68;;;7.03;;
5981;SDS011;3018;48.730;9.336;2024-03-06T09:12:33;8.52;;;7.38;;
5981;SDS011;3018;48.730;9.336;2024-03-06T09:15:01;8.30;;;6.95;;
5981;SDS011;3018;48.730;9.336;2024-03-06T09:17:27;8.55;;;7.28;;
5981;SDS011;3018;48.730;9.336;2024-03-06T09:19:54;12.63;;;7.18;;
5981;SDS011;3018;48.730;9.336;2024-03-06T09:22:20;8.80;;;7.35;;
5981;SDS011;3018;48.730;9.336;2024-03-06T09:24:46;9.25;;;7.25;;
5981;SDS011;3018;48.730;9.336;2024-03-06T09:27:13;12.27;;;8.38;;
5981;SDS011;3018;48.730;9.336;2024-03-06T09:29:41;12.00;;;9.18;;
5981;SDS011;3018;48.730;9.336;2024-03-06T09:32:08;15.20;;;8.48;;
5981;SDS011;3018;48.730;9.336;2024-03-06T09:34:34;10.38;;;8.32;;
5981;SDS011;3018;48.730;9.336;2024-03-06T09:37:01;10.38;;;7.72;;
5981;SDS011;3018;48.730;9.336;2024-03-06T09:39:28;9.90;;;7.15;;
5981;SDS011;3018;48.730;9.336;2024-03-06T09:41:54;9.40;;;7.85;;
5981;SDS011;3018;48.730;9.336;2024-03-06T09:44:21;11.35;;;8.90;;
5981;SDS011;3018;48.730;9.336;2024-03-06T09:46:49;10.10;;;8.52;;
5981;SDS011;3018;48.730;9.336;2024-03-06T09:49:16;14.45;;;10.68;;
5981;SDS011;3018;48.730;9.336;2024-03-06T09:51:43;15.50;;;12.93;;
5981;SDS011;3018;48.730;9.336;2024-03-06T09:54:11;30.50;;;21.67;;
5981;SDS011;3018;48.730;9.336;2024-03-06T09:56:38;13.10;;;9.90;;
5981;SDS011;3018;48.730;9.336;2024-03-06T09:59:04;12.13;;;9.73;;
5981;SDS011;3018;48.730;9.336;2024-03-06T10:01:31;10.00;;;9.00;;
5981;SDS011;3018;48.730;9.336;2024-03-06T10:03:58;11.00;;;8.63;;
5981;SDS011;3018;48.730;9.336;2024-03-06T10:06:25;9.80;;;8.80;;
5981;SDS011;3018;48.730;9.336;2024-03-06T10:08:51;10.30;;;9.30;;
5981;SDS011;3018;48.730;9.336;2024-03-06T10:11:18;9.65;;;8.75;;
5981;SDS011;3018;48.730;9.336;2024-03-06T10:13:44;11.48;;;9.18;;
5981;SDS011;3018;48.730;9.336;2024-03-06T10:16:10;9.90;;;8.93;;
5981;SDS011;3018;48.730;9.336;2024-03-06T10:18:39;11.93;;;9.32;;
5981;SDS011;3018;48.730;9.336;2024-03-06T10:21:06;10.23;;;8.25;;
5981;SDS011;3018;48.730;9.336;2024-03-06T10:23:33;9.88;;;8.80;;
5981;SDS011;3018;48.730;9.336;2024-03-06T10:26:00;9.32;;;8.07;;
5981;SDS011;3018;48.730;9.336;2024-03-06T10:28:26;9.68;;;8.75;;
5981;SDS011;3018;48.730;9.336;2024-03-06T10:31:02;9.45;;;8.55;;
5981;SDS011;3018;48.730;9.336;2024-03-06T10:33:28;11.30;;;9.77;;
5981;SDS011;3018;48.730;9.336;2024-03-06T10:35:54;11.48;;;9.85;;
5981;SDS011;3018;48.730;9.336;2024-03-06T10:38:22;11.32;;;10.23;;
5981;SDS011;3018;48.730;9.336;2024-03-06T10:40:50;11.00;;;9.77;;
5981;SDS011;3018;48.730;9.336;2024-03-06T10:43:17;13.32;;;10.75;;
5981;SDS011;3018;48.730;9.336;2024-03-06T10:45:46;15.85;;;11.40;;
5981;SDS011;3018;48.730;9.336;2024-03-06T10:48:13;12.82;;;11.43;;
5981;SDS011;3018;48.730;9.336;2024-03-06T10:50:39;11.82;;;10.48;;
5981;SDS011;3018;48.730;9.336;2024-03-06T10:53:07;16.13;;;11.57;;
5981;SDS011;3018;48.730;9.336;2024-03-06T10:55:36;13.52;;;10.48;;
5981;SDS011;3018;48.730;9.336;2024-03-06T10:58:03;13.48;;;10.43;;
5981;SDS011;3018;48.730;9.336;2024-03-06T11:00:33;14.73;;;10.48;;
5981;SDS011;3018;48.730;9.336;2024-03-06T11:03:00;12.65;;;10.57;;
5981;SDS011;3018;48.730;9.336;2024-03-06T11:05:31;13.50;;;10.32;;
5981;SDS011;3018;48.730;9.336;2024-03-06T11:07:57;11.57;;;10.02;;
5981;SDS011;3018;48.730;9.336;2024-03-06T11:10:31;13.57;;;9.75;;
5981;SDS011;3018;48.730;9.336;2024-03-06T11:12:59;16.27;;;11.40;;
5981;SDS011;3018;48.730;9.336;2024-03-06T11:15:26;13.18;;;10.80;;
5981;SDS011;3018;48.730;9.336;2024-03-06T11:17:53;13.75;;;12.30;;
5981;SDS011;3018;48.730;9.336;2024-03-06T11:20:20;14.40;;;12.73;;
5981;SDS011;3018;48.730;9.336;2024-03-06T11:23:02;14.82;;;13.38;;
5981;SDS011;3018;48.730;9.336;2024-03-06T11:28:21;18.75;;;13.55;;
5981;SDS011;3018;48.730;9.336;2024-03-06T11:30:48;17.05;;;13.00;;
5981;SDS011;3018;48.730;9.336;2024-03-06T11:33:14;17.85;;;13.30;;
5981;SDS011;3018;48.730;9.336;2024-03-06T11:35:41;16.23;;;13.93;;
5981;SDS011;3018;48.730;9.336;2024-03-06T11:38:09;18.23;;;14.75;;
5981;SDS011;3018;48.730;9.336;2024-03-06T11:40:42;18.08;;;14.75;;
5981;SDS011;3018;48.730;9.336;2024-03-06T11:43:23;19.02;;;15.10;;
5981;SDS011;3018;48.730;9.336;2024-03-06T11:45:49;15.60;;;13.48;;
5981;SDS011;3018;48.730;9.336;2024-03-06T11:48:15;18.42;;;15.07;;
5981;SDS011;3018;48.730;9.336;2024-03-06T11:50:42;16.52;;;14.63;;
5981;SDS011;3018;48.730;9.336;2024-03-06T11:53:09;21.42;;;15.18;;
5981;SDS011;3018;48.730;9.336;2024-03-06T11:55:35;18.23;;;14.88;;
5981;SDS011;3018;48.730;9.336;2024-03-06T11:58:01;18.77;;;15.25;;
5981;SDS011;3018;48.730;9.336;2024-03-06T12:00:31;15.63;;;13.77;;
5981;SDS011;3018;48.730;9.336;2024-03-06T12:02:57;18.20;;;14.70;;
5981;SDS011;3018;48.730;9.336;2024-03-06T12:05:23;18.15;;;15.20;;
5981;SDS011;3018;48.730;9.336;2024-03-06T12:07:50;19.02;;;14.55;;
5981;SDS011;3018;48.730;9.336;2024-03-06T12:10:16;16.10;;;14.40;;
5981;SDS011;3018;48.730;9.336;2024-03-06T12:12:43;16.15;;;14.48;;
5981;SDS011;3018;48.730;9.336;2024-03-06T12:15:10;19.17;;;15.48;;
5981;SDS011;3018;48.730;9.336;2024-03-06T12:17:43;17.17;;;14.70;;
5981;SDS011;3018;48.730;9.336;2024-03-06T12:20:11;19.75;;;15.20;;
5981;SDS011;3018;48.730;9.336;2024-03-06T12:22:43;19.02;;;15.48;;
5981;SDS011;3018;48.730;9.336;2024-03-06T12:25:09;19.23;;;15.63;;
5981;SDS011;3018;48.730;9.336;2024-03-06T12:27:36;20.55;;;15.50;;
5981;SDS011;3018;48.730;9.336;2024-03-06T12:30:06;18.30;;;15.05;;
5981;SDS011;3018;48.730;9.336;2024-03-06T12:32:34;27.35;;;16.88;;
5981;SDS011;3018;48.730;9.336;2024-03-06T12:35:01;20.25;;;15.95;;
5981;SDS011;3018;48.730;9.336;2024-03-06T12:37:30;22.85;;;17.60;;
5981;SDS011;3018;48.730;9.336;2024-03-06T12:39:57;21.88;;;16.38;;
5981;SDS011;3018;48.730;9.336;2024-03-06T12:42:23;19.73;;;16.70;;
5981;SDS011;3018;48.730;9.336;2024-03-06T12:44:50;25.10;;;18.25;;
5981;SDS011;3018;48.730;9.336;2024-03-06T12:47:17;20.98;;;17.42;;
5981;SDS011;3018;48.730;9.336;2024-03-06T12:49:43;21.92;;;17.60;;
5981;SDS011;3018;48.730;9.336;2024-03-06T12:52:10;20.08;;;16.83;;
5981;SDS011;3018;48.730;9.336;2024-03-06T12:54:37;20.20;;;17.38;;
5981;SDS011;3018;48.730;9.336;2024-03-06T12:57:03;21.73;;;17.08;;
5981;SDS011;3018;48.730;9.336;2024-03-06T12:59:29;17.92;;;15.80;;
5981;SDS011;3018;48.730;9.336;2024-03-06T13:01:56;19.45;;;16.58;;
5981;SDS011;3018;48.730;9.336;2024-03-06T13:04:22;24.77;;;19.40;;
5981;SDS011;3018;48.730;9.336;2024-03-06T13:06:56;20.55;;;17.00;;
5981;SDS011;3018;48.730;9.336;2024-03-06T13:09:23;18.98;;;16.95;;
5981;SDS011;3018;48.730;9.336;2024-03-06T13:11:50;20.90;;;17.27;;
5981;SDS011;3018;48.730;9.336;2024-03-06T13:14:16;20.45;;;16.95;;
5981;SDS011;3018;48.730;9.336;2024-03-06T13:16:42;19.92;;;16.55;;
5981;SDS011;3018;48.730;9.336;2024-03-06T13:19:08;20.90;;;17.35;;
5981;SDS011;3018;48.730;9.336;2024-03-06T13:21:36;20.08;;;16.92;;
5981;SDS011;3018;48.730;9.336;2024-03-06T13:24:04;20.45;;;17.40;;
5981;SDS011;3018;48.730;9.336;2024-03-06T13:26:30;23.05;;;17.48;;
5981;SDS011;3018;48.730;9.336;2024-03-06T13:28:57;21.80;;;18.02;;
5981;SDS011;3018;48.730;9.336;2024-03-06T13:31:24;24.45;;;18.45;;
5981;SDS011;3018;48.730;9.336;2024-03-06T13:33:50;22.42;;;17.25;;
5981;SDS011;3018;48.730;9.336;2024-03-06T13:36:18;20.77;;;17.30;;
5981;SDS011;3018;48.730;9.336;2024-03-06T13:38:45;22.38;;;18.13;;
5981;SDS011;3018;48.730;9.336;2024-03-06T13:41:13;25.27;;;18.52;;
5981;SDS011;3018;48.730;9.336;2024-03-06T13:43:39;24.73;;;18.38;;
5981;SDS011;3018;48.730;9.336;2024-03-06T13:46:05;24.67;;;18.88;;
5981;SDS011;3018;48.730;9.336;2024-03-06T13:48:31;25.08;;;18.42;;
5981;SDS011;3018;48.730;9.336;2024-03-06T13:50:58;21.60;;;17.90;;
5981;SDS011;3018;48.730;9.336;2024-03-06T13:53:24;23.17;;;18.65;;
5981;SDS011;3018;48.730;9.336;2024-03-06T13:55:50;22.05;;;17.80;;
5981;SDS011;3018;48.730;9.336;2024-03-06T13:58:18;23.73;;;18.50;;
5981;SDS011;3018;48.730;9.336;2024-03-06T14:00:44;22.38;;;17.13;;
5981;SDS011;3018;48.730;9.336;2024-03-06T14:03:11;24.05;;;17.77;;
5981;SDS011;3018;48.730;9.336;2024-03-06T14:05:37;22.83;;;18.48;;
5981;SDS011;3018;48.730;9.336;2024-03-06T14:08:05;26.05;;;19.13;;
5981;SDS011;3018;48.730;9.336;2024-03-06T14:10:31;25.48;;;19.63;;
5981;SDS011;3018;48.730;9.336;2024-03-06T14:12:58;23.35;;;19.08;;
5981;SDS011;3018;48.730;9.336;2024-03-06T14:15:26;27.00;;;20.10;;
5981;SDS011;3018;48.730;9.336;2024-03-06T14:17:52;26.42;;;19.80;;
5981;SDS011;3018;48.730;9.336;2024-03-06T14:20:19;23.67;;;19.90;;
5981;SDS011;3018;48.730;9.336;2024-03-06T14:22:45;26.65;;;20.98;;
5981;SDS011;3018;48.730;9.336;2024-03-06T14:25:12;27.75;;;21.02;;
5981;SDS011;3018;48.730;9.336;2024-03-06T14:27:38;25.60;;;21.05;;
5981;SDS011;3018;48.730;9.336;2024-03-06T14:30:05;28.33;;;21.50;;
5981;SDS011;3018;48.730;9.336;2024-03-06T14:32:33;24.98;;;21.08;;
5981;SDS011;3018;48.730;9.336;2024-03-06T14:35:00;28.52;;;21.70;;
5981;SDS011;3018;48.730;9.336;2024-03-06T14:37:26;25.70;;;20.73;;
5981;SDS011;3018;48.730;9.336;2024-03-06T14:39:53;28.02;;;20.75;;
5981;SDS011;3018;48.730;9.336;2024-03-06T14:42:19;28.15;;;21.52;;
5981;SDS011;3018;48.730;9.336;2024-03-06T14:44:46;26.83;;;21.15;;
5981;SDS011;3018;48.730;9.336;2024-03-06T14:47:12;27.90;;;20.92;;
5981;SDS011;3018;48.730;9.336;2024-03-06T14:49:41;21.70;;;17.90;;
5981;SDS011;3018;48.730;9.336;2024-03-06T14:52:09;25.25;;;18.58;;
5981;SDS011;3018;48.730;9.336;2024-03-06T14:54:35;25.83;;;20.70;;
5981;SDS011;3018;48.730;9.336;2024-03-06T14:57:01;25.27;;;19.73;;
5981;SDS011;3018;48.730;9.336;2024-03-06T14:59:28;27.92;;;19.40;;